createdAt,value
2022-10-31T00:01:01.364Z,100.00
2022-10-31T00:06:05.372Z,100.00
2022-10-31T00:11:11.508Z,100.00
2022-10-31T00:16:18.267Z,100.00
2022-10-31T00:21:22.829Z,100.00
2022-10-31T00:26:27.090Z,100.00
2022-10-31T00:31:32.529Z,100.00
2022-10-31T00:36:38.181Z,100.00
2022-10-31T00:41:42.863Z,100.00
2022-10-31T00:46:51.981Z,100.00
2022-10-31T00:51:59.420Z,100.00
2022-10-31T00:57:03.488Z,100.00
2022-10-31T01:02:09.172Z,100.00
2022-10-31T01:07:13.315Z,100.00
2022-10-31T01:12:17.469Z,100.00
2022-10-31T01:17:22.793Z,100.00
2022-10-31T01:22:26.754Z,100.00
2022-10-31T01:27:30.718Z,100.00
2022-10-31T01:32:36.101Z,100.00
2022-10-31T01:37:41.359Z,100.00
2022-10-31T01:42:47.382Z,100.00
2022-10-31T01:47:52.980Z,100.00
2022-10-31T01:52:57.780Z,100.00
2022-10-31T01:58:07.652Z,100.00
2022-10-31T02:03:13.589Z,100.00
2022-10-31T02:08:23.908Z,100.00
2022-10-31T02:13:29.506Z,100.00
2022-10-31T02:18:35.195Z,100.00
2022-10-31T02:24:15.259Z,100.00
2022-10-31T02:30:03.659Z,100.00
2022-10-31T02:35:16.053Z,100.00
2022-10-31T02:40:24.928Z,100.00
2022-10-31T02:46:04.140Z,100.00
2022-10-31T02:51:14.542Z,100.00
2022-10-31T02:56:21.489Z,100.00
2022-10-31T03:01:51.500Z,100.00
2022-10-31T03:07:03.723Z,100.00
2022-10-31T03:12:13.225Z,100.00
2022-10-31T03:17:30.192Z,100.00
2022-10-31T03:22:36.493Z,100.00
2022-10-31T03:27:42.159Z,100.00
2022-10-31T03:32:51.400Z,100.00
2022-10-31T03:37:57.711Z,100.00
2022-10-31T03:43:08.757Z,100.00
2022-10-31T03:48:13.815Z,100.00
2022-10-31T03:53:26.922Z,100.00
2022-10-31T03:58:38.376Z,100.00
2022-10-31T04:03:45.202Z,100.00
2022-10-31T04:08:56.945Z,100.00
2022-10-31T04:14:03.844Z,100.00
2022-10-31T04:19:07.781Z,100.00
2022-10-31T04:24:13.376Z,100.00
2022-10-31T04:29:18.419Z,100.00
2022-10-31T04:34:22.303Z,100.00
2022-10-31T04:39:29.545Z,100.00
2022-10-31T04:44:57.537Z,100.00
2022-10-31T04:50:02.516Z,100.00
2022-10-31T04:55:08.824Z,100.00
2022-10-31T05:00:33.026Z,100.00
2022-10-31T05:05:37.366Z,100.00
2022-10-31T05:10:42.988Z,100.00
2022-10-31T05:15:47.060Z,100.00
2022-10-31T05:20:54.072Z,100.00
2022-10-31T05:26:13.689Z,100.00
2022-10-31T05:31:18.139Z,100.00
2022-10-31T05:36:22.148Z,100.00
2022-10-31T05:41:32.435Z,100.00
2022-10-31T05:46:43.428Z,100.00
2022-10-31T05:52:02.533Z,100.00
2022-10-31T05:57:21.756Z,100.00
2022-10-31T06:02:26.237Z,100.00
2022-10-31T06:07:56.737Z,100.00
2022-10-31T06:13:03.077Z,100.00
2022-10-31T06:18:13.074Z,100.00
2022-10-31T06:23:24.029Z,100.00
2022-10-31T06:28:37.072Z,100.00
2022-10-31T06:33:54.633Z,100.00
2022-10-31T06:38:58.605Z,100.00
2022-10-31T06:44:08.076Z,100.00
2022-10-31T06:49:31.581Z,100.00
2022-10-31T06:54:39.592Z,100.00
2022-10-31T06:59:45.403Z,100.00
2022-10-31T07:04:56.197Z,99.97
2022-10-31T07:10:01.137Z,100.00
2022-10-31T07:15:22.229Z,100.00
2022-10-31T07:20:27.068Z,95.02
2022-10-31T07:25:31.430Z,100.00
2022-10-31T07:30:52.271Z,98.11
2022-10-31T07:35:58.078Z,86.05
2022-10-31T07:41:07.308Z,87.31
2022-10-31T07:46:18.292Z,88.87
2022-10-31T07:51:45.526Z,88.03
2022-10-31T07:56:50.508Z,85.63
2022-10-31T08:01:55.818Z,87.72
2022-10-31T08:07:25.903Z,90.56
2022-10-31T08:12:36.644Z,92.69
2022-10-31T08:17:45.787Z,94.95
2022-10-31T08:22:57.666Z,85.00
2022-10-31T08:28:02.474Z,87.26
2022-10-31T08:33:11.134Z,87.67
2022-10-31T08:38:33.551Z,80.34
2022-10-31T08:43:38.175Z,75.26
2022-10-31T08:48:44.085Z,69.98
2022-10-31T08:53:48.045Z,66.43
2022-10-31T08:59:14.856Z,61.07
2022-10-31T09:04:43.428Z,56.63
2022-10-31T09:09:47.485Z,53.02
2022-10-31T09:14:54.697Z,52.17
2022-10-31T09:20:23.626Z,48.48
2022-10-31T09:25:29.284Z,48.48
2022-10-31T09:30:54.966Z,46.12
2022-10-31T09:36:20.200Z,47.45
2022-10-31T09:41:31.140Z,44.83
2022-10-31T09:46:46.797Z,44.81
2022-10-31T09:51:58.385Z,42.26
2022-10-31T09:57:07.814Z,44.22
2022-10-31T10:02:18.908Z,42.36
2022-10-31T10:07:32.680Z,45.38
2022-10-31T10:13:09.620Z,49.14
2022-10-31T10:18:24.401Z,49.88
2022-10-31T10:23:41.968Z,51.11
2022-10-31T10:28:49.367Z,50.39
2022-10-31T10:34:03.976Z,49.21
2022-10-31T10:39:25.001Z,43.52
2022-10-31T10:44:46.706Z,45.23
2022-10-31T10:49:53.374Z,44.49
2022-10-31T10:55:11.666Z,40.91
2022-10-31T11:00:20.964Z,39.74
2022-10-31T11:05:30.444Z,42.59
2022-10-31T11:10:37.180Z,43.88
2022-10-31T11:15:54.964Z,43.55
2022-10-31T11:21:00.639Z,41.63
2022-10-31T11:26:07.859Z,42.66
2022-10-31T11:31:15.365Z,38.88
2022-10-31T11:36:24.673Z,38.41
2022-10-31T11:41:33.442Z,39.44
2022-10-31T11:46:40.665Z,38.59
2022-10-31T11:51:45.066Z,37.62
2022-10-31T11:56:50.468Z,38.57
2022-10-31T12:01:56.773Z,40.82
2022-10-31T12:07:01.262Z,43.53
2022-10-31T12:12:41.487Z,43.71
2022-10-31T12:17:51.625Z,44.82
2022-10-31T12:23:05.360Z,45.97
2022-10-31T12:28:45.420Z,49.04
2022-10-31T12:34:02.632Z,49.73
2022-10-31T12:39:25.708Z,48.59
2022-10-31T12:45:02.034Z,48.75
2022-10-31T12:50:22.282Z,48.19
2022-10-31T12:55:43.827Z,50.56
2022-10-31T13:00:53.570Z,49.17
2022-10-31T13:06:04.457Z,48.59
2022-10-31T13:11:12.863Z,51.65
2022-10-31T13:16:20.861Z,53.96
2022-10-31T13:21:28.340Z,52.88
2022-10-31T13:26:39.694Z,52.73
2022-10-31T13:31:45.358Z,54.04
2022-10-31T13:36:57.697Z,52.76
2022-10-31T13:42:07.933Z,53.30
2022-10-31T13:47:28.261Z,53.87
2022-10-31T13:52:32.154Z,55.02
2022-10-31T13:57:41.172Z,55.18
2022-10-31T14:02:51.216Z,56.71
2022-10-31T14:08:01.708Z,56.81
2022-10-31T14:13:08.156Z,60.14
2022-10-31T14:18:25.690Z,60.71
2022-10-31T14:23:41.523Z,61.93
2022-10-31T14:28:46.364Z,62.06
2022-10-31T14:33:51.707Z,64.53
2022-10-31T14:39:00.716Z,62.83
2022-10-31T14:44:31.048Z,63.06
2022-10-31T14:49:49.689Z,66.07
2022-10-31T14:54:57.715Z,67.47
2022-10-31T15:00:06.720Z,67.83
2022-10-31T15:05:13.739Z,69.77
2022-10-31T15:10:23.376Z,72.77
2022-10-31T15:15:28.695Z,80.37
2022-10-31T15:20:47.648Z,80.29
2022-10-31T15:25:51.722Z,78.55
2022-10-31T15:30:57.782Z,78.99
2022-10-31T15:36:04.784Z,79.69
2022-10-31T15:41:23.279Z,82.73
2022-10-31T15:46:28.272Z,84.69
2022-10-31T15:51:36.156Z,87.08
2022-10-31T15:56:40.234Z,89.13
2022-10-31T16:01:48.328Z,89.49
2022-10-31T16:07:03.757Z,90.78
2022-10-31T16:12:08.080Z,92.83
2022-10-31T16:17:15.868Z,92.01
2022-10-31T16:22:26.548Z,90.90
2022-10-31T16:27:33.143Z,94.24
2022-10-31T16:32:38.993Z,96.53
2022-10-31T16:37:44.799Z,97.22
2022-10-31T16:42:49.922Z,96.44
2022-10-31T16:47:54.068Z,94.55
2022-10-31T16:53:15.152Z,95.83
2022-10-31T16:58:25.311Z,95.08
2022-10-31T17:03:29.250Z,96.26
2022-10-31T17:08:34.641Z,96.87
2022-10-31T17:13:38.552Z,95.93
2022-10-31T17:18:43.843Z,96.05
2022-10-31T17:23:49.191Z,94.18
2022-10-31T17:28:56.102Z,94.64
2022-10-31T17:34:02.578Z,94.49
2022-10-31T17:39:09.637Z,94.00
2022-10-31T17:44:14.225Z,94.75
2022-10-31T17:49:18.132Z,96.06
2022-10-31T17:54:23.741Z,95.85
2022-10-31T17:59:30.045Z,97.96
2022-10-31T18:04:33.960Z,100.00
2022-10-31T18:09:39.262Z,93.83
2022-10-31T18:14:48.248Z,95.25
2022-10-31T18:19:52.704Z,97.07
2022-10-31T18:25:02.023Z,100.00
2022-10-31T18:30:08.235Z,100.00
2022-10-31T18:35:12.412Z,100.00
2022-10-31T18:40:18.077Z,100.00
2022-10-31T18:45:48.614Z,100.00
2022-10-31T18:50:46.253Z,100.00
2022-10-31T18:55:51.923Z,100.00
2022-10-31T19:00:57.261Z,100.00
2022-10-31T19:06:01.403Z,100.00
2022-10-31T19:11:08.287Z,100.00
2022-10-31T19:16:14.125Z,100.00
2022-10-31T19:21:19.283Z,100.00
2022-10-31T19:26:25.238Z,100.00
2022-10-31T19:31:29.387Z,100.00
2022-10-31T19:36:33.311Z,100.00
2022-10-31T19:41:38.617Z,100.00
2022-10-31T19:46:53.552Z,100.00
2022-10-31T19:51:57.840Z,100.00
2022-10-31T19:57:03.150Z,100.00
2022-10-31T20:02:07.093Z,100.00
2022-10-31T20:07:11.042Z,100.00
2022-10-31T20:12:16.408Z,100.00
2022-10-31T20:17:20.274Z,100.00
2022-10-31T20:22:24.854Z,100.00
2022-10-31T20:27:32.102Z,100.00
2022-10-31T20:32:36.075Z,100.00
2022-10-31T20:37:40.009Z,100.00
2022-10-31T20:42:45.325Z,100.00
2022-10-31T20:47:49.238Z,100.00
2022-10-31T20:52:53.966Z,100.00
2022-10-31T20:57:59.272Z,100.00
2022-10-31T21:03:03.690Z,100.00
2022-10-31T21:08:08.024Z,100.00
2022-10-31T21:13:13.413Z,100.00
2022-10-31T21:18:17.398Z,100.00
2022-10-31T21:23:21.419Z,100.00
2022-10-31T21:28:27.234Z,100.00
2022-10-31T21:33:31.684Z,100.00
2022-10-31T21:38:36.314Z,100.00
2022-10-31T21:43:47.737Z,100.00
2022-10-31T21:48:51.992Z,100.00
2022-10-31T21:54:14.097Z,100.00
2022-10-31T21:59:19.400Z,100.00
2022-10-31T22:04:23.343Z,100.00
2022-10-31T22:09:27.264Z,100.00
2022-10-31T22:14:32.646Z,100.00
2022-10-31T22:19:36.802Z,100.00
2022-10-31T22:24:40.756Z,100.00
2022-10-31T22:29:46.044Z,100.00
2022-10-31T22:34:50.016Z,100.00
2022-10-31T22:39:53.950Z,100.00
2022-10-31T22:45:01.680Z,100.00
2022-10-31T22:50:06.392Z,100.00
2022-10-31T22:55:11.047Z,100.00
2022-10-31T23:00:18.533Z,100.00
2022-10-31T23:05:22.144Z,100.00
2022-10-31T23:10:33.204Z,100.00
2022-10-31T23:15:39.647Z,100.00
2022-10-31T23:20:43.556Z,100.00
2022-10-31T23:26:05.084Z,100.00
2022-10-31T23:31:10.369Z,100.00
2022-10-31T23:36:14.303Z,100.00
2022-10-31T23:41:18.250Z,100.00
2022-10-31T23:46:23.587Z,100.00
2022-10-31T23:51:27.548Z,100.00
2022-10-31T23:56:31.495Z,100.00
